createdAt,value
2022-12-29T00:01:22.020Z,98739.47
2022-12-29T00:03:51.072Z,98736.06
2022-12-29T00:06:19.602Z,98734.38
2022-12-29T00:08:49.559Z,98724.94
2022-12-29T00:11:20.220Z,98729.28
2022-12-29T00:14:07.077Z,98733.56
2022-12-29T00:16:37.366Z,98716.28
2022-12-29T00:19:06.860Z,98715.47
2022-12-29T00:21:53.189Z,98717.22
2022-12-29T00:24:41.662Z,98701.75
2022-12-29T00:27:32.265Z,98703.50
2022-12-29T00:30:19.349Z,98706.84
2022-12-29T00:33:05.501Z,98694.81
2022-12-29T00:35:41.517Z,98693.06
2022-12-29T00:38:28.443Z,98697.44
2022-12-29T00:41:16.172Z,98706.91
2022-12-29T00:44:02.283Z,98702.63
2022-12-29T00:46:30.745Z,98697.44
2022-12-29T00:49:16.800Z,98683.72
2022-12-29T00:51:46.625Z,98689.78
2022-12-29T00:54:16.056Z,98695.88
2022-12-29T00:56:50.658Z,98668.41
2022-12-29T00:59:21.024Z,98677.84
2022-12-29T01:01:50.023Z,98665.81
2022-12-29T01:04:18.628Z,98667.56
2022-12-29T01:06:47.397Z,98667.59
2022-12-29T01:09:36.479Z,98671.09
2022-12-29T01:12:08.302Z,98681.44
2022-12-29T01:14:37.377Z,98669.41
2022-12-29T01:17:06.679Z,98672.88
2022-12-29T01:19:36.355Z,98674.63
2022-12-29T01:22:05.221Z,98660.00
2022-12-29T01:24:33.717Z,98657.44
2022-12-29T01:27:02.696Z,98653.19
2022-12-29T01:29:33.267Z,98655.78
2022-12-29T01:32:02.727Z,98667.88
2022-12-29T01:34:31.250Z,98660.13
2022-12-29T01:36:59.894Z,98658.41
2022-12-29T01:39:28.398Z,98668.00
2022-12-29T01:41:57.126Z,98667.19
2022-12-29T01:44:52.992Z,98662.88
2022-12-29T01:47:33.565Z,98646.44
2022-12-29T01:50:08.599Z,98658.59
2022-12-29T01:52:40.979Z,98653.44
2022-12-29T01:55:12.021Z,98644.81
2022-12-29T01:57:44.188Z,98647.44
2022-12-29T02:00:16.775Z,98653.56
2022-12-29T02:02:54.266Z,98645.81
2022-12-29T02:05:31.227Z,98643.22
2022-12-29T02:08:02.310Z,98638.03
2022-12-29T02:10:34.271Z,98637.22
2022-12-29T02:13:03.076Z,98644.97
2022-12-29T02:15:48.663Z,98627.75
2022-12-29T02:18:30.306Z,98627.78
2022-12-29T02:21:53.325Z,98623.50
2022-12-29T02:25:09.019Z,98626.88
2022-12-29T02:27:55.446Z,98623.44
2022-12-29T02:31:00.976Z,98610.53
2022-12-29T02:33:48.681Z,98624.38
2022-12-29T02:36:27.153Z,98614.09
2022-12-29T02:39:05.828Z,98606.38
2022-12-29T02:41:39.071Z,98615.84
2022-12-29T02:44:17.977Z,98621.94
2022-12-29T02:46:55.240Z,98619.41
2022-12-29T02:49:33.812Z,98608.19
2022-12-29T02:52:06.412Z,98606.50
2022-12-29T02:54:43.340Z,98610.84
2022-12-29T02:57:31.145Z,98601.41
2022-12-29T03:00:05.237Z,98603.16
2022-12-29T03:03:07.884Z,98602.28
2022-12-29T03:06:06.640Z,98607.50
2022-12-29T03:08:43.738Z,98613.53
2022-12-29T03:11:31.436Z,98608.31
2022-12-29T03:14:27.120Z,98604.97
2022-12-29T03:17:02.663Z,98612.66
2022-12-29T03:19:36.834Z,98611.84
2022-12-29T03:22:26.344Z,98595.50
2022-12-29T03:25:12.172Z,98592.06
2022-12-29T03:27:45.605Z,98586.09
2022-12-29T03:30:16.149Z,98582.69
2022-12-29T03:32:49.675Z,98592.19
2022-12-29T03:35:24.444Z,98584.44
2022-12-29T03:38:00.226Z,98593.09
2022-12-29T03:40:31.125Z,98579.34
2022-12-29T03:43:00.536Z,98569.81
2022-12-29T03:45:30.231Z,98570.69
2022-12-29T03:47:59.898Z,98575.03
2022-12-29T03:50:30.731Z,98577.69
2022-12-29T03:52:59.283Z,98569.94
2022-12-29T03:55:29.463Z,98563.88
2022-12-29T03:57:59.084Z,98559.59
2022-12-29T04:00:47.652Z,98558.72
2022-12-29T04:03:16.125Z,98556.91
2022-12-29T04:05:48.721Z,98554.38
2022-12-29T04:08:17.377Z,98559.53
2022-12-29T04:10:46.152Z,98546.56
2022-12-29T04:13:16.418Z,98543.09
2022-12-29T04:15:47.363Z,98542.22
2022-12-29T04:18:16.957Z,98539.63
2022-12-29T04:21:04.591Z,98539.63
2022-12-29T04:23:38.666Z,98531.00
2022-12-29T04:26:10.384Z,98535.28
2022-12-29T04:29:01.696Z,98524.06
2022-12-29T04:31:50.538Z,98494.81
2022-12-29T04:34:20.205Z,98498.22
2022-12-29T04:36:52.204Z,98495.69
2022-12-29T04:39:21.066Z,98492.22
2022-12-29T04:41:50.255Z,98500.88
2022-12-29T04:44:22.119Z,98512.97
2022-12-29T04:47:19.826Z,98528.47
2022-12-29T04:50:08.548Z,98524.22
2022-12-29T04:52:47.908Z,98531.16
2022-12-29T04:55:17.228Z,98507.88
2022-12-29T04:57:47.529Z,98529.44
2022-12-29T05:00:20.653Z,98523.44
2022-12-29T05:02:50.367Z,98532.91
2022-12-29T05:05:20.110Z,98529.53
2022-12-29T05:07:53.293Z,98535.59
2022-12-29T05:10:22.368Z,98529.59
2022-12-29T05:12:54.301Z,98521.94
2022-12-29T05:15:23.602Z,98530.59
2022-12-29T05:17:52.891Z,98530.63
2022-12-29T05:20:21.368Z,98526.34
2022-12-29T05:22:49.702Z,98525.50
2022-12-29T05:25:19.793Z,98537.63
2022-12-29T05:27:58.258Z,98523.00
2022-12-29T05:30:40.802Z,98535.09
2022-12-29T05:33:12.679Z,98534.25
2022-12-29T05:35:42.016Z,98526.56
2022-12-29T05:38:10.586Z,98560.16
2022-12-29T05:40:41.775Z,98541.28
2022-12-29T05:43:22.790Z,98541.25
2022-12-29T05:46:24.075Z,98528.34
2022-12-29T05:49:01.621Z,98569.78
2022-12-29T05:51:40.465Z,98574.09
2022-12-29T05:54:09.662Z,98558.66
2022-12-29T05:56:40.571Z,98544.88
2022-12-29T05:59:09.305Z,98544.94
2022-12-29T06:01:38.721Z,98533.72
2022-12-29T06:04:07.359Z,98554.44
2022-12-29T06:06:36.241Z,98556.19
2022-12-29T06:09:06.447Z,98560.50
2022-12-29T06:11:35.533Z,98549.34
2022-12-29T06:14:06.379Z,98554.50
2022-12-29T06:16:35.881Z,98564.84
2022-12-29T06:19:07.128Z,98558.84
2022-12-29T06:21:35.598Z,98564.91
2022-12-29T06:24:04.139Z,98567.53
2022-12-29T06:26:32.766Z,98564.94
2022-12-29T06:29:01.285Z,98569.25
2022-12-29T06:31:31.357Z,98574.47
2022-12-29T06:34:04.926Z,98581.34
2022-12-29T06:36:36.646Z,98580.53
2022-12-29T06:39:05.290Z,98596.06
2022-12-29T06:41:33.823Z,98602.09
2022-12-29T06:44:24.703Z,98594.38
2022-12-29T06:46:58.707Z,98613.38
2022-12-29T06:49:27.225Z,98615.97
2022-12-29T06:51:55.723Z,98622.84
2022-12-29T06:54:24.126Z,98634.91
2022-12-29T06:56:52.636Z,98629.69
2022-12-29T06:59:21.038Z,98640.94
2022-12-29T07:01:50.161Z,98638.38
2022-12-29T07:04:20.620Z,98637.50
2022-12-29T07:06:49.061Z,98629.78
2022-12-29T07:09:17.933Z,98640.13
2022-12-29T07:11:46.251Z,98641.84
2022-12-29T07:14:15.125Z,98634.13
2022-12-29T07:16:43.764Z,98641.00
2022-12-29T07:19:12.557Z,98635.84
2022-12-29T07:21:45.289Z,98635.00
2022-12-29T07:24:13.682Z,98645.31
2022-12-29T07:26:42.994Z,98649.59
2022-12-29T07:29:11.557Z,98646.19
2022-12-29T07:31:39.965Z,98655.66
2022-12-29T07:34:10.521Z,98660.81
2022-12-29T07:36:39.285Z,98662.53
2022-12-29T07:39:09.741Z,98669.44
2022-12-29T07:41:38.281Z,98662.53
2022-12-29T07:44:07.177Z,98660.78
2022-12-29T07:46:54.969Z,98665.13
2022-12-29T07:49:23.988Z,98690.09
2022-12-29T07:51:52.592Z,98709.09
2022-12-29T07:54:23.497Z,98693.53
2022-12-29T07:56:53.010Z,98704.69
2022-12-29T07:59:21.800Z,98703.81
2022-12-29T08:01:50.363Z,98705.53
2022-12-29T08:04:18.978Z,98723.59
2022-12-29T08:06:47.539Z,98702.06
2022-12-29T08:09:22.094Z,98721.88
2022-12-29T08:11:53.041Z,98736.56
2022-12-29T08:14:21.761Z,98732.22
2022-12-29T08:16:50.145Z,98726.22
2022-12-29T08:19:18.671Z,98728.81
2022-12-29T08:21:47.149Z,98714.16
2022-12-29T08:24:15.560Z,98727.09
2022-12-29T08:26:44.072Z,98714.22
2022-12-29T08:29:13.983Z,98718.56
2022-12-29T08:31:42.497Z,98715.97
2022-12-29T08:34:11.392Z,98724.63
2022-12-29T08:36:39.878Z,98727.19
2022-12-29T08:39:08.352Z,98714.28
2022-12-29T08:41:36.838Z,98723.63
2022-12-29T08:44:05.675Z,98734.97
2022-12-29T08:46:35.900Z,98734.09
2022-12-29T08:49:04.502Z,98745.31
2022-12-29T08:51:32.860Z,98730.63
2022-12-29T08:54:01.613Z,98734.16
2022-12-29T08:56:30.879Z,98736.75
2022-12-29T08:59:01.778Z,98736.75
2022-12-29T09:01:34.737Z,98731.63
2022-12-29T09:04:14.919Z,98743.72
2022-12-29T09:06:45.029Z,98749.78
2022-12-29T09:09:13.979Z,98757.53
2022-12-29T09:11:44.264Z,98761.78
2022-12-29T09:14:13.373Z,98764.38
2022-12-29T09:17:01.426Z,98767.78
2022-12-29T09:19:29.934Z,98771.97
2022-12-29T09:21:58.666Z,98765.03
2022-12-29T09:24:27.347Z,98771.91
2022-12-29T09:26:56.099Z,98775.31
2022-12-29T09:29:25.743Z,98777.84
2022-12-29T09:31:55.987Z,98799.38
2022-12-29T09:34:24.585Z,98789.03
2022-12-29T09:36:53.328Z,98784.69
2022-12-29T09:39:22.749Z,98794.16
2022-12-29T09:42:03.129Z,98787.31
2022-12-29T09:44:48.106Z,98793.38
2022-12-29T09:47:20.783Z,98788.19
2022-12-29T09:49:54.545Z,98786.53
2022-12-29T09:52:30.426Z,98786.56
2022-12-29T09:55:07.551Z,98788.31
2022-12-29T09:57:45.480Z,98790.06
2022-12-29T10:00:18.757Z,98791.81
2022-12-29T10:02:53.205Z,98794.50
2022-12-29T10:05:33.945Z,98794.47
2022-12-29T10:08:20.458Z,98793.59
2022-12-29T10:10:57.261Z,98787.56
2022-12-29T10:13:45.840Z,98771.97
2022-12-29T10:16:20.715Z,98777.19
2022-12-29T10:19:28.270Z,98777.19
2022-12-29T10:22:18.485Z,98773.78
2022-12-29T10:24:49.554Z,98782.47
2022-12-29T10:27:19.501Z,98779.06
2022-12-29T10:29:53.344Z,98782.53
2022-12-29T10:32:31.433Z,98788.66
2022-12-29T10:35:12.575Z,98781.81
2022-12-29T10:37:48.474Z,98772.38
2022-12-29T10:40:26.045Z,98772.41
2022-12-29T10:42:57.519Z,98781.06
2022-12-29T10:45:31.086Z,98785.44
2022-12-29T10:48:04.449Z,98775.94
2022-12-29T10:50:34.826Z,98782.00
2022-12-29T10:53:07.331Z,98790.69
2022-12-29T10:55:39.202Z,98783.88
2022-12-29T10:58:10.720Z,98803.75
2022-12-29T11:00:39.602Z,98783.03
2022-12-29T11:03:33.304Z,98801.22
2022-12-29T11:06:11.555Z,98813.28
2022-12-29T11:08:47.119Z,98797.75
2022-12-29T11:11:28.364Z,98797.75
2022-12-29T11:14:05.326Z,98810.69
2022-12-29T11:16:37.022Z,98809.81
2022-12-29T11:19:05.693Z,98807.25
2022-12-29T11:21:41.277Z,98819.31
2022-12-29T11:24:24.735Z,98805.50
2022-12-29T11:27:17.899Z,98814.94
2022-12-29T11:30:26.247Z,98826.09
2022-12-29T11:32:56.317Z,98820.91
2022-12-29T11:35:35.721Z,98824.38
2022-12-29T11:38:06.947Z,98847.69
2022-12-29T11:40:41.503Z,98850.28
2022-12-29T11:43:25.578Z,98855.44
2022-12-29T11:45:57.510Z,98832.16
2022-12-29T11:48:31.673Z,98852.84
2022-12-29T11:51:01.332Z,98851.97
2022-12-29T11:53:41.243Z,98853.75
2022-12-29T11:56:15.194Z,98843.41
2022-12-29T11:58:44.281Z,98869.28
2022-12-29T12:01:24.464Z,98871.03
2022-12-29T12:04:02.336Z,98875.34
2022-12-29T12:06:35.314Z,98869.28
2022-12-29T12:09:11.495Z,98871.03
2022-12-29T12:11:46.439Z,98871.91
2022-12-29T12:14:22.925Z,98872.81
2022-12-29T12:17:16.642Z,98879.63
2022-12-29T12:19:52.962Z,98887.41
2022-12-29T12:22:32.296Z,98874.47
2022-12-29T12:25:07.941Z,98881.34
2022-12-29T12:27:41.720Z,98888.34
2022-12-29T12:30:18.044Z,98890.09
2022-12-29T12:32:54.314Z,98895.34
2022-12-29T12:35:34.026Z,98885.00
2022-12-29T12:38:17.844Z,98888.50
2022-12-29T12:41:03.707Z,98885.03
2022-12-29T12:43:43.052Z,98887.56
2022-12-29T12:46:30.968Z,98885.88
2022-12-29T12:49:19.629Z,98892.69
2022-12-29T12:52:05.062Z,98887.56
2022-12-29T12:54:59.097Z,98903.03
2022-12-29T12:57:45.241Z,98904.78
2022-12-29T13:00:19.002Z,98895.31
2022-12-29T13:03:03.163Z,98909.97
2022-12-29T13:05:59.659Z,98906.56
2022-12-29T13:08:55.210Z,98924.63
2022-12-29T13:11:40.175Z,98922.91
2022-12-29T13:14:27.224Z,98921.22
2022-12-29T13:17:04.924Z,98920.41
2022-12-29T13:19:38.259Z,98925.56
2022-12-29T13:22:13.017Z,98909.22
2022-12-29T13:24:59.158Z,98923.91
2022-12-29T13:27:37.553Z,98929.91
2022-12-29T13:30:13.253Z,98928.16
2022-12-29T13:32:56.838Z,98929.03
2022-12-29T13:35:41.489Z,98934.16
2022-12-29T13:38:16.051Z,98932.38
2022-12-29T13:40:49.498Z,98944.53
2022-12-29T13:43:20.120Z,98941.03
2022-12-29T13:46:00.205Z,98933.25
2022-12-29T13:48:39.956Z,98943.63
2022-12-29T13:51:11.361Z,98945.31
2022-12-29T13:53:59.451Z,98941.91
2022-12-29T13:56:37.950Z,98949.63
2022-12-29T13:59:12.927Z,98949.56
2022-12-29T14:01:52.590Z,98962.47
2022-12-29T14:04:26.448Z,98962.47
2022-12-29T14:07:07.738Z,98952.09
2022-12-29T14:09:49.957Z,98961.56
2022-12-29T14:12:34.525Z,98968.50
2022-12-29T14:15:17.895Z,98954.69
2022-12-29T14:18:07.578Z,98965.03
2022-12-29T14:20:37.117Z,98978.00
2022-12-29T14:23:26.612Z,98964.22
2022-12-29T14:26:13.651Z,98973.69
2022-12-29T14:28:43.557Z,98972.81
2022-12-29T14:31:41.991Z,98971.97
2022-12-29T14:34:33.212Z,98983.16
2022-12-29T14:37:03.729Z,98981.44
2022-12-29T14:39:37.461Z,98988.34
2022-12-29T14:42:13.019Z,98980.56
2022-12-29T14:44:49.863Z,98980.56
2022-12-29T14:47:22.861Z,98974.50
2022-12-29T14:49:54.568Z,98994.31
2022-12-29T14:52:28.438Z,98990.91
2022-12-29T14:55:01.396Z,98990.03
2022-12-29T14:57:35.378Z,99000.38
2022-12-29T15:00:18.056Z,98997.78
2022-12-29T15:02:53.003Z,99002.09
2022-12-29T15:05:36.605Z,98998.63
2022-12-29T15:08:06.701Z,98995.91
2022-12-29T15:10:43.238Z,99004.56
2022-12-29T15:13:19.419Z,98993.34
2022-12-29T15:15:48.076Z,99007.13
2022-12-29T15:18:24.982Z,99001.97
2022-12-29T15:20:59.387Z,98999.38
2022-12-29T15:23:28.526Z,99006.25
2022-12-29T15:26:00.768Z,99002.78
2022-12-29T15:28:39.322Z,99001.97
2022-12-29T15:31:13.908Z,99001.09
2022-12-29T15:33:45.018Z,99008.00
2022-12-29T15:36:20.031Z,99003.69
2022-12-29T15:38:48.942Z,98991.59
2022-12-29T15:41:33.242Z,99001.03
2022-12-29T15:44:17.236Z,99007.91
2022-12-29T15:46:45.924Z,99019.09
2022-12-29T15:49:16.711Z,99013.97
2022-12-29T15:51:47.274Z,99020.03
2022-12-29T15:54:19.848Z,99020.91
2022-12-29T15:56:49.169Z,99022.66
2022-12-29T15:59:27.786Z,99019.22
2022-12-29T16:01:58.109Z,99023.53
2022-12-29T16:04:31.202Z,99035.63
2022-12-29T16:07:03.549Z,99046.84
2022-12-29T16:09:34.285Z,99049.41
2022-12-29T16:12:07.743Z,99058.00
2022-12-29T16:14:44.058Z,99051.97
2022-12-29T16:17:20.235Z,99064.06
2022-12-29T16:19:54.047Z,99062.31
2022-12-29T16:22:32.026Z,99061.44
2022-12-29T16:25:05.807Z,99057.03
2022-12-29T16:27:38.593Z,99069.13
2022-12-29T16:30:18.775Z,99059.59
2022-12-29T16:32:49.716Z,99063.00
2022-12-29T16:35:21.914Z,99068.19
2022-12-29T16:38:15.657Z,99075.06
2022-12-29T16:40:53.875Z,99073.34
2022-12-29T16:43:25.701Z,99068.13
2022-12-29T16:46:21.295Z,99074.13
2022-12-29T16:48:54.267Z,99079.28
2022-12-29T16:51:32.433Z,99070.69
2022-12-29T16:54:03.542Z,99071.53
2022-12-29T16:56:35.790Z,99071.53
2022-12-29T16:59:08.422Z,99083.63
2022-12-29T17:01:39.201Z,99081.06
2022-12-29T17:04:11.372Z,99085.41
2022-12-29T17:06:41.055Z,99070.66
2022-12-29T17:09:23.040Z,99084.41
2022-12-29T17:12:01.528Z,99078.38
2022-12-29T17:14:44.439Z,99084.38
2022-12-29T17:17:18.955Z,99086.91
2022-12-29T17:19:52.187Z,99091.22
2022-12-29T17:22:25.648Z,99093.75
2022-12-29T17:24:56.372Z,99096.31
2022-12-29T17:27:31.508Z,99109.25
2022-12-29T17:30:05.292Z,99115.22
2022-12-29T17:32:34.446Z,99118.59
2022-12-29T17:35:03.190Z,99117.69
2022-12-29T17:37:36.440Z,99089.25
2022-12-29T17:40:09.425Z,99121.97
2022-12-29T17:42:44.182Z,99127.09
2022-12-29T17:45:17.913Z,99128.72
2022-12-29T17:47:46.828Z,99128.72
2022-12-29T17:50:18.858Z,99121.78
2022-12-29T17:52:53.157Z,99128.72
2022-12-29T17:55:29.921Z,99133.97
2022-12-29T17:58:01.511Z,99147.72
2022-12-29T18:00:32.515Z,99161.47
2022-12-29T18:03:01.351Z,99170.75
2022-12-29T18:05:32.079Z,99174.69
2022-12-29T18:08:01.513Z,99173.56
2022-12-29T18:10:32.804Z,99183.56
2022-12-29T18:13:03.076Z,99182.59
2022-12-29T18:15:35.096Z,99207.41
2022-12-29T18:18:12.031Z,99191.75
2022-12-29T18:20:41.685Z,99190.66
2022-12-29T18:23:21.239Z,99194.94
2022-12-29T18:25:55.166Z,99188.00
2022-12-29T18:28:25.074Z,99188.75
2022-12-29T18:30:54.343Z,99184.47
2022-12-29T18:33:26.296Z,99186.16
2022-12-29T18:35:59.091Z,99187.19
2022-12-29T18:38:28.408Z,99184.59
2022-12-29T18:40:59.420Z,99186.28
2022-12-29T18:43:27.987Z,99191.47
2022-12-29T18:45:56.695Z,99201.81
2022-12-29T18:48:25.114Z,99186.22
2022-12-29T18:50:55.130Z,99193.16
2022-12-29T18:53:28.696Z,99200.91
2022-12-29T18:55:58.546Z,99205.13
2022-12-29T18:58:33.770Z,99200.81
2022-12-29T19:01:02.769Z,99203.34
2022-12-29T19:03:31.648Z,99211.03
2022-12-29T19:06:00.802Z,99207.50
2022-12-29T19:08:29.196Z,99210.09
2022-12-29T19:11:01.229Z,99208.34
2022-12-29T19:13:33.758Z,99202.22
2022-12-29T19:16:02.276Z,99218.63
2022-12-29T19:18:53.378Z,99213.38
2022-12-29T19:21:22.595Z,99215.00
2022-12-29T19:23:51.920Z,99217.44
2022-12-29T19:26:31.676Z,99219.06
2022-12-29T19:29:01.535Z,99224.22
2022-12-29T19:31:30.207Z,99232.78
2022-12-29T19:33:58.784Z,99241.41
2022-12-29T19:36:27.443Z,99237.88
2022-12-29T19:38:55.867Z,99239.59
2022-12-29T19:41:26.333Z,99227.53
2022-12-29T19:43:55.640Z,99236.97
2022-12-29T19:46:25.477Z,99242.88
2022-12-29T19:48:54.867Z,99247.97
2022-12-29T19:51:23.316Z,99246.19
2022-12-29T19:53:52.121Z,99255.72
2022-12-29T19:56:20.645Z,99263.47
2022-12-29T19:58:51.472Z,99260.06
2022-12-29T20:01:24.662Z,99260.91
2022-12-29T20:03:54.057Z,99256.53
2022-12-29T20:06:23.062Z,99259.81
2022-12-29T20:08:51.399Z,99254.66
2022-12-29T20:11:20.733Z,99261.44
2022-12-29T20:13:50.566Z,99264.84
2022-12-29T20:16:21.143Z,99277.78
2022-12-29T20:18:50.829Z,99273.41
2022-12-29T20:21:21.986Z,99273.41
2022-12-29T20:23:51.775Z,99273.41
2022-12-29T20:26:23.033Z,99276.88
2022-12-29T20:28:53.375Z,99286.34
2022-12-29T20:31:25.831Z,99294.09
2022-12-29T20:33:55.034Z,99294.09
2022-12-29T20:36:30.176Z,99289.81
2022-12-29T20:39:01.250Z,99299.25
2022-12-29T20:41:31.255Z,99302.53
2022-12-29T20:44:01.367Z,99290.44
2022-12-29T20:46:35.308Z,99302.44
2022-12-29T20:49:11.396Z,99305.88
2022-12-29T20:54:38.481Z,99301.56
2022-12-29T20:57:08.146Z,99291.25
2022-12-29T20:59:38.266Z,99308.47
2022-12-29T21:02:08.961Z,99307.59
2022-12-29T21:05:12.838Z,99304.13
2022-12-29T21:07:26.139Z,99312.78
2022-12-29T21:09:54.691Z,99314.41
2022-12-29T21:12:23.469Z,99316.03
2022-12-29T21:14:53.293Z,99316.91
2022-12-29T21:17:21.767Z,99318.63
2022-12-29T21:19:50.498Z,99315.16
2022-12-29T21:22:18.832Z,99322.00
2022-12-29T21:24:47.163Z,99324.56
2022-12-29T21:27:15.952Z,99324.50
2022-12-29T21:29:44.363Z,99321.09
2022-12-29T21:32:14.478Z,99317.63
2022-12-29T21:34:43.447Z,99325.19
2022-12-29T21:37:12.623Z,99331.13
2022-12-29T21:39:41.205Z,99332.75
2022-12-29T21:42:10.081Z,99338.72
2022-12-29T21:44:56.115Z,99347.38
2022-12-29T21:47:45.995Z,99342.19
2022-12-29T21:50:14.952Z,99339.44
2022-12-29T21:52:43.366Z,99336.75
2022-12-29T21:55:11.897Z,99344.50
2022-12-29T21:57:57.868Z,99341.06
2022-12-29T22:00:44.000Z,99343.63
2022-12-29T22:03:31.419Z,99350.47
2022-12-29T22:06:17.591Z,99348.63
2022-12-29T22:09:03.753Z,99349.41
2022-12-29T22:11:49.700Z,99349.41
2022-12-29T22:14:18.338Z,99352.91
2022-12-29T22:16:46.756Z,99352.19
2022-12-29T22:19:16.680Z,99359.13
2022-12-29T22:21:45.021Z,99360.00
2022-12-29T22:24:13.639Z,99357.41
2022-12-29T22:26:42.005Z,99360.00
2022-12-29T22:29:10.408Z,99358.22
2022-12-29T22:31:39.011Z,99373.72
2022-12-29T22:34:07.680Z,99370.25
2022-12-29T22:36:38.822Z,99375.34
2022-12-29T22:39:07.384Z,99380.50
2022-12-29T22:41:35.845Z,99382.97
2022-12-29T22:44:05.011Z,99388.94
2022-12-29T22:46:33.600Z,99389.78
2022-12-29T22:49:02.620Z,99396.63
2022-12-29T22:51:31.124Z,99393.22
2022-12-29T22:54:01.257Z,99394.13
2022-12-29T22:56:30.232Z,99400.97
2022-12-29T22:58:58.711Z,99407.84
2022-12-29T23:01:27.283Z,99406.84
2022-12-29T23:04:10.268Z,99404.19
2022-12-29T23:06:44.289Z,99404.13
2022-12-29T23:09:19.784Z,99415.25
2022-12-29T23:11:49.249Z,99428.13
2022-12-29T23:14:19.051Z,99423.69
2022-12-29T23:16:49.131Z,99437.47
2022-12-29T23:19:18.092Z,99438.28
2022-12-29T23:21:47.086Z,99443.44
2022-12-29T23:24:17.133Z,99441.69
2022-12-29T23:26:48.609Z,99450.31
2022-12-29T23:29:19.657Z,99460.72
2022-12-29T23:31:49.132Z,99460.59
2022-12-29T23:34:18.795Z,99462.34
2022-12-29T23:36:47.795Z,99464.88
2022-12-29T23:39:23.432Z,99469.16
2022-12-29T23:41:52.460Z,99475.13
2022-12-29T23:44:20.959Z,99483.75
2022-12-29T23:46:50.198Z,99479.31
2022-12-29T23:49:18.906Z,99486.19
2022-12-29T23:51:47.392Z,99480.91
2022-12-29T23:54:15.869Z,99491.97
2022-12-29T23:56:45.827Z,99491.91
2022-12-29T23:59:14.559Z,99500.59
